26fukujumaru — JM6129 — position and weather

sailwx.info

Track history (hours):
 
Tides and Currents Weather Stations Pressure Air Temp Water Temp Dewpoint Dewpoint Depression Visibility Wind Speed Wind Dir Waves Ship Positions

26fukujumaru

Last reported at 2018-Apr-27 01:59 UTC. Time now 2018-Apr-27 02:24 UTC.
Position N 35°28' E 139°41'.

Length 65 m.

Type: Tanker. MMSI: 431600124.

Date/timePositionNaut miles runAvg speedWind from/ knotsBaromVisibWave heightAir tempDewpointWater temp
2018-Apr-27 01:59N 35°28' E 139°41'0 0.2
2018-Apr-27 01:28N 35°28' E 139°40'0 0.0
2018-Apr-27 00:58N 35°28' E 139°40'0 0.0
2018-Apr-27 00:28N 35°28' E 139°40'0 0.0
2018-Apr-26 23:58N 35°28' E 139°40'0 0.1
2018-Apr-26 23:30N 35°28' E 139°40'2 4.4
2018-Apr-26 23:00N 35°27' E 139°43'0 0.3
2018-Apr-26 22:28N 35°27' E 139°42'0 0.0
2018-Apr-26 21:58N 35°27' E 139°42'0 0.1
2018-Apr-26 21:28N 35°27' E 139°43'0 0.1
2018-Apr-26 20:58N 35°27' E 139°43'0 0.1
2018-Apr-26 20:22N 35°27' E 139°42'0 0.1
2018-Apr-26 19:55N 35°27' E 139°43'0 0.0
2018-Apr-26 19:25N 35°27' E 139°43'0 0.1
2018-Apr-26 18:58N 35°27' E 139°42'0 0.1
2018-Apr-26 18:22N 35°27' E 139°43'0 0.0
2018-Apr-26 17:58N 35°27' E 139°43'0 0.0
2018-Apr-26 17:28N 35°27' E 139°43'0 0.1
2018-Apr-26 16:58N 35°27' E 139°43'0 0.0
2018-Apr-26 16:22N 35°27' E 139°43'0 0.0
2018-Apr-26 15:43N 35°27' E 139°43'0 0.0
2018-Apr-26 15:28N 35°27' E 139°43'0 0.1
2018-Apr-26 14:55N 35°27' E 139°43'0 0.0
2018-Apr-26 14:28N 35°27' E 139°43'0 0.0
2018-Apr-26 13:58N 35°27' E 139°43'0 0.0
2018-Apr-26 13:25N 35°27' E 139°43'0 0.1
2018-Apr-26 12:55N 35°27' E 139°43'0 0.1
2018-Apr-26 12:28N 35°27' E 139°43'0 0.0
2018-Apr-26 11:58N 35°27' E 139°43'0 0.0
2018-Apr-26 11:25N 35°27' E 139°43'0 0.0
2018-Apr-26 10:58N 35°27' E 139°43'0 0.0
2018-Apr-26 10:28N 35°27' E 139°43'0 0.1
2018-Apr-26 09:58N 35°27' E 139°42'0 0.1
2018-Apr-26 09:28N 35°27' E 139°43'0 0.1
2018-Apr-26 08:58N 35°27' E 139°42'0 0.6
2018-Apr-26 08:30N 35°27' E 139°43'510.0
2018-Apr-26 08:00N 35°28' E 139°49'910.1
2018-Apr-26 07:09N 35°32' E 139°58'410.8
2018-Apr-26 06:48N 35°33' E 140°02'2 6.5
2018-Apr-26 06:30N 35°33' E 140°05'0 0.0
2018-Apr-26 05:54N 35°33' E 140°05'0 0.0
2018-Apr-26 05:24N 35°33' E 140°05'0 0.0
2018-Apr-26 05:00N 35°33' E 140°05'0 0.2
2018-Apr-26 04:30N 35°33' E 140°05'12 8.8
2018-Apr-26 03:08N 35°30' E 139°50'1 9.6
2018-Apr-26 03:00N 35°30' E 139°49'3 6.4
2018-Apr-26 02:30N 35°28' E 139°45'0 0.4
2018-Apr-26 02:00N 35°28' E 139°45'4 8.9
2018-Apr-26 01:30N 35°24' E 139°42'2 4.1
2018-Apr-26 00:56N 35°25' E 139°39'0 0.0
2018-Apr-26 00:27N 35°25' E 139°39'0 0.0
2018-Apr-25 23:54N 35°25' E 139°39'0 0.0
2018-Apr-25 23:30N 35°25' E 139°39'2 3.6
2018-Apr-25 22:59N 35°23' E 139°40'2 3.3
2018-Apr-25 22:30N 35°21' E 139°40'1 2.3
2018-Apr-25 21:58N 35°20' E 139°40'0 0.0
2018-Apr-25 21:28N 35°20' E 139°40'0 0.0
2018-Apr-25 20:58N 35°20' E 139°40'0 0.0
2018-Apr-25 20:25N 35°20' E 139°40'0 0.1
2018-Apr-25 19:52N 35°20' E 139°40'0 0.0
2018-Apr-25 19:28N 35°20' E 139°40'0 0.0
2018-Apr-25 18:58N 35°20' E 139°40'0 0.0
2018-Apr-25 18:28N 35°20' E 139°40'0 0.0
2018-Apr-25 17:58N 35°20' E 139°40'0 0.0
2018-Apr-25 17:28N 35°20' E 139°40'0 0.0
2018-Apr-25 16:55N 35°20' E 139°40'0 0.0
2018-Apr-25 16:28N 35°20' E 139°40'0 0.0
2018-Apr-25 15:55N 35°20' E 139°40'0 0.0
2018-Apr-25 15:25N 35°20' E 139°40'0 0.1
2018-Apr-25 14:55N 35°20' E 139°40'0 0.2
2018-Apr-25 14:28N 35°20' E 139°40'0 0.0
2018-Apr-25 13:58N 35°20' E 139°40'0 0.0
2018-Apr-25 13:28N 35°20' E 139°40'0 0.0
2018-Apr-25 12:55N 35°20' E 139°40'0 0.0
2018-Apr-25 12:25N 35°20' E 139°40'0 0.1
2018-Apr-25 11:58N 35°20' E 139°40'0 0.1
2018-Apr-25 11:28N 35°20' E 139°40'0 0.1
2018-Apr-25 10:58N 35°20' E 139°40'0 0.0
2018-Apr-25 10:28N 35°20' E 139°40'0 0.0
2018-Apr-25 09:58N 35°20' E 139°40'0 0.0
2018-Apr-25 09:25N 35°20' E 139°40'0 0.0
2018-Apr-25 08:58N 35°20' E 139°40'0 0.0
2018-Apr-25 08:22N 35°20' E 139°40'0 0.0
2018-Apr-25 07:58N 35°20' E 139°40'0 0.1
2018-Apr-25 07:28N 35°20' E 139°40'0 0.1
2018-Apr-25 06:58N 35°20' E 139°40'0 0.0
2018-Apr-25 06:28N 35°20' E 139°40'0 0.0
2018-Apr-25 05:58N 35°20' E 139°40'0 0.1
2018-Apr-25 05:28N 35°20' E 139°40'0 0.0
2018-Apr-25 04:58N 35°20' E 139°40'0 0.0
2018-Apr-25 04:19N 35°20' E 139°40'0 0.0
2018-Apr-25 03:58N 35°20' E 139°40'0 0.0
2018-Apr-25 03:22N 35°20' E 139°40'0 0.0
2018-Apr-25 02:55N 35°20' E 139°40'0 0.1
2018-Apr-25 02:25N 35°20' E 139°40'0 0.0
2018-Apr-25 01:58N 35°20' E 139°40'0 0.0
2018-Apr-25 01:28N 35°20' E 139°40'0 0.1
2018-Apr-25 00:52N 35°20' E 139°40'0 0.0
2018-Apr-25 00:28N 35°20' E 139°40'0 0.0
2018-Apr-24 23:52N 35°20' E 139°40'0 0.0
2018-Apr-24 23:16N 35°20' E 139°40'0 0.0
2018-Apr-24 22:52N 35°20' E 139°40'2 6.2
2018-Apr-24 22:30N 35°22' E 139°41'4 8.6
2018-Apr-24 22:00N 35°27' E 139°41'3 5.5
2018-Apr-24 21:29N 35°28' E 139°39'0 0.0
2018-Apr-24 20:59N 35°28' E 139°39'0 0.0
2018-Apr-24 20:29N 35°28' E 139°39'0 0.0
2018-Apr-24 19:59N 35°28' E 139°39'0 0.0
2018-Apr-24 19:29N 35°28' E 139°39'0 0.0
2018-Apr-24 18:59N 35°28' E 139°39'0 0.0
2018-Apr-24 18:29N 35°28' E 139°39'0 0.0
2018-Apr-24 17:59N 35°28' E 139°39'0 0.0
2018-Apr-24 17:29N 35°28' E 139°39'0 0.0
2018-Apr-24 16:59N 35°28' E 139°39'0 0.0
2018-Apr-24 16:26N 35°28' E 139°39'0 0.0
2018-Apr-24 15:59N 35°28' E 139°39'0 0.0
2018-Apr-24 15:20N 35°28' E 139°39'0 0.0
2018-Apr-24 14:59N 35°28' E 139°39'0 0.0
2018-Apr-24 14:29N 35°28' E 139°39'0 0.0
2018-Apr-24 13:59N 35°28' E 139°39'0 0.0
2018-Apr-24 13:29N 35°28' E 139°39'0 0.0
2018-Apr-24 12:59N 35°28' E 139°39'0 0.0
2018-Apr-24 12:29N 35°28' E 139°39'0 0.0
2018-Apr-24 11:56N 35°28' E 139°39'0 0.0
2018-Apr-24 11:29N 35°28' E 139°39'0 0.0
2018-Apr-24 10:59N 35°28' E 139°39'0 0.0
2018-Apr-24 10:29N 35°28' E 139°39'0 0.0
2018-Apr-24 09:59N 35°28' E 139°39'0 0.0
2018-Apr-24 09:29N 35°28' E 139°39'0 0.0
2018-Apr-24 08:59N 35°28' E 139°39'0 0.0
2018-Apr-24 08:29N 35°28' E 139°39'0 0.0
2018-Apr-24 07:56N 35°28' E 139°39'0 0.0
2018-Apr-24 07:29N 35°28' E 139°39'0 0.0
2018-Apr-24 06:59N 35°28' E 139°39'0 0.0
2018-Apr-24 06:26N 35°28' E 139°39'0 0.1
2018-Apr-24 06:00N 35°28' E 139°39'1 2.9
2018-Apr-24 05:30N 35°28' E 139°40'0 0.0
2018-Apr-24 05:00N 35°28' E 139°40'0 0.0
2018-Apr-24 04:30N 35°28' E 139°40'0 0.6
2018-Apr-24 04:00N 35°28' E 139°40'2 4.1
2018-Apr-24 03:30N 35°27' E 139°42'0 0.0
2018-Apr-24 03:00N 35°27' E 139°42'0 0.0
2018-Apr-24 02:30N 35°27' E 139°42'1 1.0
2018-Apr-24 02:00N 35°27' E 139°43'5 9.0
2018-Apr-24 01:29N 35°30' E 139°47'1 0.7
2018-Apr-24 00:37N 35°31' E 139°46'0 0.0
2018-Apr-24 00:28N 35°31' E 139°46'0 0.0
2018-Apr-23 23:52N 35°31' E 139°46'2 4.5
2018-Apr-23 23:30N 35°30' E 139°48'1 1.9
2018-Apr-23 22:58N 35°29' E 139°48'0 0.2
2018-Apr-23 22:28N 35°29' E 139°48'0 0.6
2018-Apr-23 22:00N 35°28' E 139°48'510.3
2018-Apr-23 21:30N 35°24' E 139°46'510.8
2018-Apr-23 21:00N 35°19' E 139°44'510.1
2018-Apr-23 20:30N 35°14' E 139°47'510.8
2018-Apr-23 20:00N 35°09' E 139°46'611.4
2018-Apr-23 19:30N 35°03' E 139°45'2 0.1
2018-Apr-22 06:54N 35°01' E 139°44'4 9.5
2018-Apr-22 06:29N 35°05' E 139°45'5 9.8
2018-Apr-22 06:00N 35°10' E 139°46'610.5
2018-Apr-22 05:28N 35°16' E 139°46'510.5
2018-Apr-22 05:00N 35°19' E 139°43'5 9.8
2018-Apr-22 04:30N 35°24' E 139°43'510.1
2018-Apr-22 04:00N 35°27' E 139°48'7 9.9
2018-Apr-22 03:17N 35°30' E 139°56'4 1.5
2018-Apr-22 00:37N 35°29' E 140°01'0 0.2
2018-Apr-21 22:54N 35°29' E 140°01'2 3.9
2018-Apr-21 22:23N 35°30' E 139°59'2 3.1
2018-Apr-21 21:53N 35°30' E 139°57'510.6
2018-Apr-21 21:25N 35°30' E 139°51'511.3
2018-Apr-21 21:00N 35°28' E 139°45'5 9.3
2018-Apr-21 20:30N 35°28' E 139°40'1 1.9
2018-Apr-21 19:58N 35°28' E 139°39'0 0.0
2018-Apr-21 19:25N 35°28' E 139°39'0 0.0
2018-Apr-21 18:58N 35°28' E 139°39'0 0.0
2018-Apr-21 18:28N 35°28' E 139°39'0 0.0
2018-Apr-21 17:58N 35°28' E 139°39'0 0.0
2018-Apr-21 17:28N 35°28' E 139°39'0 0.0
2018-Apr-21 16:58N 35°28' E 139°39'0 0.0
2018-Apr-21 16:28N 35°28' E 139°39'0 0.0
2018-Apr-21 15:58N 35°28' E 139°39'0 0.0
2018-Apr-21 15:28N 35°28' E 139°39'0 0.0
2018-Apr-21 14:58N 35°28' E 139°39'0 0.0
2018-Apr-21 14:28N 35°28' E 139°39'0 0.0
2018-Apr-21 13:58N 35°28' E 139°39'0 0.0
2018-Apr-21 13:28N 35°28' E 139°39'0 0.0
2018-Apr-21 12:58N 35°28' E 139°39'0 0.0
2018-Apr-21 12:28N 35°28' E 139°39'0 0.0
2018-Apr-21 11:58N 35°28' E 139°39'0 0.0
2018-Apr-21 11:28N 35°28' E 139°39'0 0.0
2018-Apr-21 10:58N 35°28' E 139°39'0 0.0
2018-Apr-21 10:28N 35°28' E 139°39'0 0.0
2018-Apr-21 09:58N 35°28' E 139°39'0 0.0
2018-Apr-21 09:28N 35°28' E 139°39'0 0.0
2018-Apr-21 08:58N 35°28' E 139°39'0 0.0
2018-Apr-21 08:28N 35°28' E 139°39'0 0.0
2018-Apr-21 07:58N 35°28' E 139°39'0 0.0
2018-Apr-21 07:28N 35°28' E 139°39'0 0.0
2018-Apr-21 06:58N 35°28' E 139°39'0 0.0
2018-Apr-21 06:28N 35°28' E 139°39'0 0.0
2018-Apr-21 05:58N 35°28' E 139°39'0 0.0
2018-Apr-21 05:28N 35°28' E 139°39'0 0.0
2018-Apr-21 04:58N 35°28' E 139°39'0 0.1
2018-Apr-21 04:30N 35°28' E 139°39'3 6.8
2018-Apr-21 04:00N 35°26' E 139°42'510.5
2018-Apr-21 03:30N 35°21' E 139°43'510.5
2018-Apr-21 03:00N 35°17' E 139°46'5 9.8
2018-Apr-21 02:30N 35°12' E 139°47'611.1
2018-Apr-21 02:00N 35°06' E 139°46'711.7
2018-Apr-21 01:25N 34°59' E 139°44'  
Track history (hours):
 
Tides and Currents Weather Stations Pressure Air Temp Water Temp Dewpoint Dewpoint Depression Visibility Wind Speed Wind Dir Waves Ship Positions

26fukujumaru

Last reported at 2018-Apr-27 01:59 UTC. Time now 2018-Apr-27 02:24 UTC.
Position N 35°28' E 139°41'.

Length 65 m.

Type: Tanker. MMSI: 431600124.

Date/timePositionNaut miles runAvg speedWind from/ knotsBaromVisibWave heightAir tempDewpointWater temp
2018-Apr-27 01:59N 35°28' E 139°41'0 0.2
2018-Apr-27 01:28N 35°28' E 139°40'0 0.0
2018-Apr-27 00:58N 35°28' E 139°40'0 0.0
2018-Apr-27 00:28N 35°28' E 139°40'0 0.0
2018-Apr-26 23:58N 35°28' E 139°40'0 0.1
2018-Apr-26 23:30N 35°28' E 139°40'2 4.4
2018-Apr-26 23:00N 35°27' E 139°43'0 0.3
2018-Apr-26 22:28N 35°27' E 139°42'0 0.0
2018-Apr-26 21:58N 35°27' E 139°42'0 0.1
2018-Apr-26 21:28N 35°27' E 139°43'0 0.1
2018-Apr-26 20:58N 35°27' E 139°43'0 0.1
2018-Apr-26 20:22N 35°27' E 139°42'0 0.1
2018-Apr-26 19:55N 35°27' E 139°43'0 0.0
2018-Apr-26 19:25N 35°27' E 139°43'0 0.1
2018-Apr-26 18:58N 35°27' E 139°42'0 0.1
2018-Apr-26 18:22N 35°27' E 139°43'0 0.0
2018-Apr-26 17:58N 35°27' E 139°43'0 0.0
2018-Apr-26 17:28N 35°27' E 139°43'0 0.1
2018-Apr-26 16:58N 35°27' E 139°43'0 0.0
2018-Apr-26 16:22N 35°27' E 139°43'0 0.0
2018-Apr-26 15:43N 35°27' E 139°43'0 0.0
2018-Apr-26 15:28N 35°27' E 139°43'0 0.1
2018-Apr-26 14:55N 35°27' E 139°43'0 0.0
2018-Apr-26 14:28N 35°27' E 139°43'0 0.0
2018-Apr-26 13:58N 35°27' E 139°43'0 0.0
2018-Apr-26 13:25N 35°27' E 139°43'0 0.1
2018-Apr-26 12:55N 35°27' E 139°43'0 0.1
2018-Apr-26 12:28N 35°27' E 139°43'0 0.0
2018-Apr-26 11:58N 35°27' E 139°43'0 0.0
2018-Apr-26 11:25N 35°27' E 139°43'0 0.0
2018-Apr-26 10:58N 35°27' E 139°43'0 0.0
2018-Apr-26 10:28N 35°27' E 139°43'0 0.1
2018-Apr-26 09:58N 35°27' E 139°42'0 0.1
2018-Apr-26 09:28N 35°27' E 139°43'0 0.1
2018-Apr-26 08:58N 35°27' E 139°42'0 0.6
2018-Apr-26 08:30N 35°27' E 139°43'510.0
2018-Apr-26 08:00N 35°28' E 139°49'910.1
2018-Apr-26 07:09N 35°32' E 139°58'410.8
2018-Apr-26 06:48N 35°33' E 140°02'2 6.5
2018-Apr-26 06:30N 35°33' E 140°05'0 0.0
2018-Apr-26 05:54N 35°33' E 140°05'0 0.0
2018-Apr-26 05:24N 35°33' E 140°05'0 0.0
2018-Apr-26 05:00N 35°33' E 140°05'0 0.2
2018-Apr-26 04:30N 35°33' E 140°05'12 8.8
2018-Apr-26 03:08N 35°30' E 139°50'1 9.6
2018-Apr-26 03:00N 35°30' E 139°49'3 6.4
2018-Apr-26 02:30N 35°28' E 139°45'0 0.4
2018-Apr-26 02:00N 35°28' E 139°45'4 8.9
2018-Apr-26 01:30N 35°24' E 139°42'2 4.1
2018-Apr-26 00:56N 35°25' E 139°39'0 0.0
2018-Apr-26 00:27N 35°25' E 139°39'0 0.0
2018-Apr-25 23:54N 35°25' E 139°39'0 0.0
2018-Apr-25 23:30N 35°25' E 139°39'2 3.6
2018-Apr-25 22:59N 35°23' E 139°40'2 3.3
2018-Apr-25 22:30N 35°21' E 139°40'1 2.3
2018-Apr-25 21:58N 35°20' E 139°40'0 0.0
2018-Apr-25 21:28N 35°20' E 139°40'0 0.0
2018-Apr-25 20:58N 35°20' E 139°40'0 0.0
2018-Apr-25 20:25N 35°20' E 139°40'0 0.1
2018-Apr-25 19:52N 35°20' E 139°40'0 0.0
2018-Apr-25 19:28N 35°20' E 139°40'0 0.0
2018-Apr-25 18:58N 35°20' E 139°40'0 0.0
2018-Apr-25 18:28N 35°20' E 139°40'0 0.0
2018-Apr-25 17:58N 35°20' E 139°40'0 0.0
2018-Apr-25 17:28N 35°20' E 139°40'0 0.0
2018-Apr-25 16:55N 35°20' E 139°40'0 0.0
2018-Apr-25 16:28N 35°20' E 139°40'0 0.0
2018-Apr-25 15:55N 35°20' E 139°40'0 0.0
2018-Apr-25 15:25N 35°20' E 139°40'0 0.1
2018-Apr-25 14:55N 35°20' E 139°40'0 0.2
2018-Apr-25 14:28N 35°20' E 139°40'0 0.0
2018-Apr-25 13:58N 35°20' E 139°40'0 0.0
2018-Apr-25 13:28N 35°20' E 139°40'0 0.0
2018-Apr-25 12:55N 35°20' E 139°40'0 0.0
2018-Apr-25 12:25N 35°20' E 139°40'0 0.1
2018-Apr-25 11:58N 35°20' E 139°40'0 0.1
2018-Apr-25 11:28N 35°20' E 139°40'0 0.1
2018-Apr-25 10:58N 35°20' E 139°40'0 0.0
2018-Apr-25 10:28N 35°20' E 139°40'0 0.0
2018-Apr-25 09:58N 35°20' E 139°40'0 0.0
2018-Apr-25 09:25N 35°20' E 139°40'0 0.0
2018-Apr-25 08:58N 35°20' E 139°40'0 0.0
2018-Apr-25 08:22N 35°20' E 139°40'0 0.0
2018-Apr-25 07:58N 35°20' E 139°40'0 0.1
2018-Apr-25 07:28N 35°20' E 139°40'0 0.1
2018-Apr-25 06:58N 35°20' E 139°40'0 0.0
2018-Apr-25 06:28N 35°20' E 139°40'0 0.0
2018-Apr-25 05:58N 35°20' E 139°40'0 0.1
2018-Apr-25 05:28N 35°20' E 139°40'0 0.0
2018-Apr-25 04:58N 35°20' E 139°40'0 0.0
2018-Apr-25 04:19N 35°20' E 139°40'0 0.0
2018-Apr-25 03:58N 35°20' E 139°40'0 0.0
2018-Apr-25 03:22N 35°20' E 139°40'0 0.0
2018-Apr-25 02:55N 35°20' E 139°40'0 0.1
2018-Apr-25 02:25N 35°20' E 139°40'0 0.0
2018-Apr-25 01:58N 35°20' E 139°40'0 0.0
2018-Apr-25 01:28N 35°20' E 139°40'0 0.1
2018-Apr-25 00:52N 35°20' E 139°40'0 0.0
2018-Apr-25 00:28N 35°20' E 139°40'0 0.0
2018-Apr-24 23:52N 35°20' E 139°40'0 0.0
2018-Apr-24 23:16N 35°20' E 139°40'0 0.0
2018-Apr-24 22:52N 35°20' E 139°40'2 6.2
2018-Apr-24 22:30N 35°22' E 139°41'4 8.6
2018-Apr-24 22:00N 35°27' E 139°41'3 5.5
2018-Apr-24 21:29N 35°28' E 139°39'0 0.0
2018-Apr-24 20:59N 35°28' E 139°39'0 0.0
2018-Apr-24 20:29N 35°28' E 139°39'0 0.0
2018-Apr-24 19:59N 35°28' E 139°39'0 0.0
2018-Apr-24 19:29N 35°28' E 139°39'0 0.0
2018-Apr-24 18:59N 35°28' E 139°39'0 0.0
2018-Apr-24 18:29N 35°28' E 139°39'0 0.0
2018-Apr-24 17:59N 35°28' E 139°39'0 0.0
2018-Apr-24 17:29N 35°28' E 139°39'0 0.0
2018-Apr-24 16:59N 35°28' E 139°39'0 0.0
2018-Apr-24 16:26N 35°28' E 139°39'0 0.0
2018-Apr-24 15:59N 35°28' E 139°39'0 0.0
2018-Apr-24 15:20N 35°28' E 139°39'0 0.0
2018-Apr-24 14:59N 35°28' E 139°39'0 0.0
2018-Apr-24 14:29N 35°28' E 139°39'0 0.0
2018-Apr-24 13:59N 35°28' E 139°39'0 0.0
2018-Apr-24 13:29N 35°28' E 139°39'0 0.0
2018-Apr-24 12:59N 35°28' E 139°39'0 0.0
2018-Apr-24 12:29N 35°28' E 139°39'0 0.0
2018-Apr-24 11:56N 35°28' E 139°39'0 0.0
2018-Apr-24 11:29N 35°28' E 139°39'0 0.0
2018-Apr-24 10:59N 35°28' E 139°39'0 0.0
2018-Apr-24 10:29N 35°28' E 139°39'0 0.0
2018-Apr-24 09:59N 35°28' E 139°39'0 0.0
2018-Apr-24 09:29N 35°28' E 139°39'0 0.0
2018-Apr-24 08:59N 35°28' E 139°39'0 0.0
2018-Apr-24 08:29N 35°28' E 139°39'0 0.0
2018-Apr-24 07:56N 35°28' E 139°39'0 0.0
2018-Apr-24 07:29N 35°28' E 139°39'0 0.0
2018-Apr-24 06:59N 35°28' E 139°39'0 0.0
2018-Apr-24 06:26N 35°28' E 139°39'0 0.1
2018-Apr-24 06:00N 35°28' E 139°39'1 2.9
2018-Apr-24 05:30N 35°28' E 139°40'0 0.0
2018-Apr-24 05:00N 35°28' E 139°40'0 0.0
2018-Apr-24 04:30N 35°28' E 139°40'0 0.6
2018-Apr-24 04:00N 35°28' E 139°40'2 4.1
2018-Apr-24 03:30N 35°27' E 139°42'0 0.0
2018-Apr-24 03:00N 35°27' E 139°42'0 0.0
2018-Apr-24 02:30N 35°27' E 139°42'1 1.0
2018-Apr-24 02:00N 35°27' E 139°43'5 9.0
2018-Apr-24 01:29N 35°30' E 139°47'1 0.7
2018-Apr-24 00:37N 35°31' E 139°46'0 0.0
2018-Apr-24 00:28N 35°31' E 139°46'0 0.0
2018-Apr-23 23:52N 35°31' E 139°46'2 4.5
2018-Apr-23 23:30N 35°30' E 139°48'1 1.9
2018-Apr-23 22:58N 35°29' E 139°48'0 0.2
2018-Apr-23 22:28N 35°29' E 139°48'0 0.6
2018-Apr-23 22:00N 35°28' E 139°48'510.3
2018-Apr-23 21:30N 35°24' E 139°46'510.8
2018-Apr-23 21:00N 35°19' E 139°44'510.1
2018-Apr-23 20:30N 35°14' E 139°47'510.8
2018-Apr-23 20:00N 35°09' E 139°46'611.4
2018-Apr-23 19:30N 35°03' E 139°45'2 0.1
2018-Apr-22 06:54N 35°01' E 139°44'4 9.5
2018-Apr-22 06:29N 35°05' E 139°45'5 9.8
2018-Apr-22 06:00N 35°10' E 139°46'610.5
2018-Apr-22 05:28N 35°16' E 139°46'510.5
2018-Apr-22 05:00N 35°19' E 139°43'5 9.8
2018-Apr-22 04:30N 35°24' E 139°43'510.1
2018-Apr-22 04:00N 35°27' E 139°48'7 9.9
2018-Apr-22 03:17N 35°30' E 139°56'4 1.5
2018-Apr-22 00:37N 35°29' E 140°01'0 0.2
2018-Apr-21 22:54N 35°29' E 140°01'2 3.9
2018-Apr-21 22:23N 35°30' E 139°59'2 3.1
2018-Apr-21 21:53N 35°30' E 139°57'510.6
2018-Apr-21 21:25N 35°30' E 139°51'511.3
2018-Apr-21 21:00N 35°28' E 139°45'5 9.3
2018-Apr-21 20:30N 35°28' E 139°40'1 1.9
2018-Apr-21 19:58N 35°28' E 139°39'0 0.0
2018-Apr-21 19:25N 35°28' E 139°39'0 0.0
2018-Apr-21 18:58N 35°28' E 139°39'0 0.0
2018-Apr-21 18:28N 35°28' E 139°39'0 0.0
2018-Apr-21 17:58N 35°28' E 139°39'0 0.0
2018-Apr-21 17:28N 35°28' E 139°39'0 0.0
2018-Apr-21 16:58N 35°28' E 139°39'0 0.0
2018-Apr-21 16:28N 35°28' E 139°39'0 0.0
2018-Apr-21 15:58N 35°28' E 139°39'0 0.0
2018-Apr-21 15:28N 35°28' E 139°39'0 0.0
2018-Apr-21 14:58N 35°28' E 139°39'0 0.0
2018-Apr-21 14:28N 35°28' E 139°39'0 0.0
2018-Apr-21 13:58N 35°28' E 139°39'0 0.0
2018-Apr-21 13:28N 35°28' E 139°39'0 0.0
2018-Apr-21 12:58N 35°28' E 139°39'0 0.0
2018-Apr-21 12:28N 35°28' E 139°39'0 0.0
2018-Apr-21 11:58N 35°28' E 139°39'0 0.0
2018-Apr-21 11:28N 35°28' E 139°39'0 0.0
2018-Apr-21 10:58N 35°28' E 139°39'0 0.0
2018-Apr-21 10:28N 35°28' E 139°39'0 0.0
2018-Apr-21 09:58N 35°28' E 139°39'0 0.0
2018-Apr-21 09:28N 35°28' E 139°39'0 0.0
2018-Apr-21 08:58N 35°28' E 139°39'0 0.0
2018-Apr-21 08:28N 35°28' E 139°39'0 0.0
2018-Apr-21 07:58N 35°28' E 139°39'0 0.0
2018-Apr-21 07:28N 35°28' E 139°39'0 0.0
2018-Apr-21 06:58N 35°28' E 139°39'0 0.0
2018-Apr-21 06:28N 35°28' E 139°39'0 0.0
2018-Apr-21 05:58N 35°28' E 139°39'0 0.0
2018-Apr-21 05:28N 35°28' E 139°39'0 0.0
2018-Apr-21 04:58N 35°28' E 139°39'0 0.1
2018-Apr-21 04:30N 35°28' E 139°39'3 6.8
2018-Apr-21 04:00N 35°26' E 139°42'510.5
2018-Apr-21 03:30N 35°21' E 139°43'510.5
2018-Apr-21 03:00N 35°17' E 139°46'5 9.8
2018-Apr-21 02:30N 35°12' E 139°47'611.1
2018-Apr-21 02:00N 35°06' E 139°46'711.7
2018-Apr-21 01:25N 34°59' E 139°44'  

Dump ship's entire track history